sensor_id;sensor_type;location;lat;lon;timestamp;pressure;altitude;pressure_sealevel;temperature;humidity
27210;BME280;14721;42.668;23.386;2022-12-18T00:02:19;96084.84;;;7.41;100.00
27210;BME280;14721;42.668;23.386;2022-12-18T00:04:45;96089.59;;;7.35;100.00
27210;BME280;14721;42.668;23.386;2022-12-18T00:07:11;96084.13;;;7.38;100.00
27210;BME280;14721;42.668;23.386;2022-12-18T00:09:37;96084.06;;;7.39;100.00
27210;BME280;14721;42.668;23.386;2022-12-18T00:12:03;96082.03;;;7.44;100.00
27210;BME280;14721;42.668;23.386;2022-12-18T00:14:33;96082.50;;;7.35;100.00
27210;BME280;14721;42.668;23.386;2022-12-18T00:16:58;96093.44;;;7.29;100.00
27210;BME280;14721;42.668;23.386;2022-12-18T00:19:28;96099.66;;;7.28;100.00
27210;BME280;14721;42.668;23.386;2022-12-18T00:21:55;96099.81;;;7.25;100.00
27210;BME280;14721;42.668;23.386;2022-12-18T00:24:23;96109.34;;;7.12;100.00
27210;BME280;14721;42.668;23.386;2022-12-18T00:26:50;96088.81;;;6.97;100.00
27210;BME280;14721;42.668;23.386;2022-12-18T00:29:16;96111.25;;;7.09;100.00
27210;BME280;14721;42.668;23.386;2022-12-18T00:31:42;96112.22;;;7.08;100.00
27210;BME280;14721;42.668;23.386;2022-12-18T00:34:11;96112.56;;;7.00;100.00
27210;BME280;14721;42.668;23.386;2022-12-18T00:36:39;96121.50;;;6.99;100.00
27210;BME280;14721;42.668;23.386;2022-12-18T00:39:07;96126.09;;;6.96;100.00
27210;BME280;14721;42.668;23.386;2022-12-18T00:41:41;96129.09;;;6.88;100.00
27210;BME280;14721;42.668;23.386;2022-12-18T00:44:26;96108.88;;;6.86;100.00
27210;BME280;14721;42.668;23.386;2022-12-18T00:46:52;96125.63;;;6.86;100.00
27210;BME280;14721;42.668;23.386;2022-12-18T00:49:20;96129.53;;;6.79;100.00
27210;BME280;14721;42.668;23.386;2022-12-18T00:51:48;96125.16;;;6.78;100.00
27210;BME280;14721;42.668;23.386;2022-12-18T00:54:15;96128.44;;;6.83;100.00
27210;BME280;14721;42.668;23.386;2022-12-18T00:56:41;96137.22;;;6.85;100.00
27210;BME280;14721;42.668;23.386;2022-12-18T00:59:08;96138.81;;;6.71;100.00
27210;BME280;14721;42.668;23.386;2022-12-18T01:01:34;96142.84;;;6.59;99.78
27210;BME280;14721;42.668;23.386;2022-12-18T01:04:01;96140.28;;;6.58;100.00
27210;BME280;14721;42.668;23.386;2022-12-18T01:06:28;96147.41;;;6.57;100.00
27210;BME280;14721;42.668;23.386;2022-12-18T01:08:55;96136.13;;;6.52;100.00
27210;BME280;14721;42.668;23.386;2022-12-18T01:11:21;96156.28;;;6.56;100.00
27210;BME280;14721;42.668;23.386;2022-12-18T01:13:50;96154.44;;;6.58;100.00
27210;BME280;14721;42.668;23.386;2022-12-18T01:16:20;96154.69;;;6.52;100.00
27210;BME280;14721;42.668;23.386;2022-12-18T01:18:53;96167.09;;;6.52;100.00
27210;BME280;14721;42.668;23.386;2022-12-18T01:21:20;96153.06;;;6.50;99.97
27210;BME280;14721;42.668;23.386;2022-12-18T01:23:54;96152.25;;;6.48;100.00
27210;BME280;14721;42.668;23.386;2022-12-18T01:26:20;96148.59;;;6.50;99.93
27210;BME280;14721;42.668;23.386;2022-12-18T01:28:46;96147.88;;;6.47;100.00
27210;BME280;14721;42.668;23.386;2022-12-18T01:31:25;96159.47;;;6.44;99.66
27210;BME280;14721;42.668;23.386;2022-12-18T01:33:55;96163.81;;;6.47;100.00
27210;BME280;14721;42.668;23.386;2022-12-18T01:36:24;96156.75;;;6.27;100.00
27210;BME280;14721;42.668;23.386;2022-12-18T01:38:53;96153.50;;;6.21;99.31
27210;BME280;14721;42.668;23.386;2022-12-18T01:41:26;96167.34;;;6.27;99.42
27210;BME280;14721;42.668;23.386;2022-12-18T01:43:56;96173.00;;;6.20;99.82
27210;BME280;14721;42.668;23.386;2022-12-18T01:46:23;96175.78;;;6.17;99.91
27210;BME280;14721;42.668;23.386;2022-12-18T01:49:00;96173.19;;;6.15;100.00
27210;BME280;14721;42.668;23.386;2022-12-18T01:51:28;96175.59;;;6.01;100.00
27210;BME280;14721;42.668;23.386;2022-12-18T01:53:56;96173.44;;;5.89;100.00
27210;BME280;14721;42.668;23.386;2022-12-18T01:56:24;96178.75;;;5.89;100.00
27210;BME280;14721;42.668;23.386;2022-12-18T01:59:04;96185.97;;;5.86;100.00
27210;BME280;14721;42.668;23.386;2022-12-18T02:01:32;96179.97;;;5.82;100.00
27210;BME280;14721;42.668;23.386;2022-12-18T02:04:21;96188.50;;;5.89;100.00
27210;BME280;14721;42.668;23.386;2022-12-18T02:07:12;96174.66;;;5.82;100.00
27210;BME280;14721;42.668;23.386;2022-12-18T02:09:50;96198.69;;;5.77;100.00
27210;BME280;14721;42.668;23.386;2022-12-18T02:12:21;96195.03;;;5.80;100.00
27210;BME280;14721;42.668;23.386;2022-12-18T02:15:24;96201.25;;;5.79;100.00
27210;BME280;14721;42.668;23.386;2022-12-18T02:17:55;96186.91;;;5.63;100.00
27210;BME280;14721;42.668;23.386;2022-12-18T02:31:25;96224.69;;;5.68;100.00
27210;BME280;14721;42.668;23.386;2022-12-18T02:33:56;96223.19;;;5.62;100.00
27210;BME280;14721;42.668;23.386;2022-12-18T02:36:26;96217.44;;;5.51;100.00
27210;BME280;14721;42.668;23.386;2022-12-18T02:38:54;96213.44;;;5.41;100.00
27210;BME280;14721;42.668;23.386;2022-12-18T02:41:21;96216.94;;;5.42;100.00
27210;BME280;14721;42.668;23.386;2022-12-18T02:44:01;96235.25;;;5.48;100.00
27210;BME280;14721;42.668;23.386;2022-12-18T02:46:34;96245.97;;;5.45;100.00
27210;BME280;14721;42.668;23.386;2022-12-18T02:51:55;96227.59;;;5.40;100.00
27210;BME280;14721;42.668;23.386;2022-12-18T02:56:55;96231.59;;;5.29;100.00
27210;BME280;14721;42.668;23.386;2022-12-18T02:59:56;96242.75;;;5.15;100.00
27210;BME280;14721;42.668;23.386;2022-12-18T03:02:32;96249.69;;;5.18;100.00
27210;BME280;14721;42.668;23.386;2022-12-18T03:05:10;96246.16;;;5.19;100.00
27210;BME280;14721;42.668;23.386;2022-12-18T03:07:58;96239.22;;;5.15;100.00
27210;BME280;14721;42.668;23.386;2022-12-18T03:10:29;96250.69;;;5.15;100.00
27210;BME280;14721;42.668;23.386;2022-12-18T03:13:09;96254.31;;;5.13;100.00
27210;BME280;14721;42.668;23.386;2022-12-18T03:15:47;96259.38;;;5.19;100.00
27210;BME280;14721;42.668;23.386;2022-12-18T03:18:24;96258.34;;;5.23;100.00
27210;BME280;14721;42.668;23.386;2022-12-18T03:20:53;96268.97;;;5.44;100.00
27210;BME280;14721;42.668;23.386;2022-12-18T03:23:27;96268.59;;;5.53;100.00
27210;BME280;14721;42.668;23.386;2022-12-18T03:26:03;96271.63;;;5.44;100.00
27210;BME280;14721;42.668;23.386;2022-12-18T03:28:36;96267.78;;;5.51;100.00
27210;BME280;14721;42.668;23.386;2022-12-18T03:31:05;96245.66;;;5.31;100.00
27210;BME280;14721;42.668;23.386;2022-12-18T03:33:51;96276.59;;;5.30;99.85
27210;BME280;14721;42.668;23.386;2022-12-18T03:36:19;96280.59;;;5.40;100.00
27210;BME280;14721;42.668;23.386;2022-12-18T03:38:46;96288.78;;;5.34;100.00
27210;BME280;14721;42.668;23.386;2022-12-18T03:49:23;96295.72;;;5.15;99.75
27210;BME280;14721;42.668;23.386;2022-12-18T03:52:01;96290.81;;;5.05;99.22
27210;BME280;14721;42.668;23.386;2022-12-18T03:54:33;96315.97;;;5.16;98.85
27210;BME280;14721;42.668;23.386;2022-12-18T03:57:11;96318.22;;;5.27;98.67
27210;BME280;14721;42.668;23.386;2022-12-18T03:59:39;96321.56;;;5.32;97.57
27210;BME280;14721;42.668;23.386;2022-12-18T04:02:07;96314.38;;;5.35;97.13
27210;BME280;14721;42.668;23.386;2022-12-18T04:04:37;96303.22;;;5.27;96.41
27210;BME280;14721;42.668;23.386;2022-12-18T04:07:05;96295.44;;;5.23;96.43
27210;BME280;14721;42.668;23.386;2022-12-18T04:09:32;96317.22;;;5.31;97.01
27210;BME280;14721;42.668;23.386;2022-12-18T04:11:59;96311.03;;;5.30;97.07
27210;BME280;14721;42.668;23.386;2022-12-18T04:14:25;96317.31;;;5.28;96.75
27210;BME280;14721;42.668;23.386;2022-12-18T04:16:51;96319.41;;;5.20;96.85
27210;BME280;14721;42.668;23.386;2022-12-18T04:19:19;96323.75;;;5.21;96.73
27210;BME280;14721;42.668;23.386;2022-12-18T04:21:45;96340.03;;;5.12;96.30
27210;BME280;14721;42.668;23.386;2022-12-18T04:24:13;96335.53;;;5.14;95.83
27210;BME280;14721;42.668;23.386;2022-12-18T04:26:39;96340.88;;;5.12;95.55
27210;BME280;14721;42.668;23.386;2022-12-18T04:29:06;96331.44;;;5.05;95.62
27210;BME280;14721;42.668;23.386;2022-12-18T04:31:31;96332.66;;;4.97;95.99
27210;BME280;14721;42.668;23.386;2022-12-18T04:34:01;96336.78;;;5.04;95.27
27210;BME280;14721;42.668;23.386;2022-12-18T04:36:29;96337.72;;;5.03;95.05
27210;BME280;14721;42.668;23.386;2022-12-18T04:38:57;96350.84;;;5.06;95.26
27210;BME280;14721;42.668;23.386;2022-12-18T04:41:23;96347.38;;;5.04;95.08
27210;BME280;14721;42.668;23.386;2022-12-18T04:43:49;96349.88;;;5.08;95.13
27210;BME280;14721;42.668;23.386;2022-12-18T04:46:15;96357.00;;;5.06;94.50
27210;BME280;14721;42.668;23.386;2022-12-18T04:48:42;96360.75;;;5.01;94.11
27210;BME280;14721;42.668;23.386;2022-12-18T04:51:07;96363.56;;;4.96;93.53
27210;BME280;14721;42.668;23.386;2022-12-18T04:53:33;96372.31;;;4.98;93.82
27210;BME280;14721;42.668;23.386;2022-12-18T04:56:08;96376.91;;;4.93;93.40
27210;BME280;14721;42.668;23.386;2022-12-18T04:58:35;96386.72;;;4.90;92.99
27210;BME280;14721;42.668;23.386;2022-12-18T05:01:01;96381.00;;;5.02;92.83
27210;BME280;14721;42.668;23.386;2022-12-18T05:03:28;96375.97;;;4.94;92.75
27210;BME280;14721;42.668;23.386;2022-12-18T05:05:54;96381.09;;;4.99;92.78
27210;BME280;14721;42.668;23.386;2022-12-18T05:08:19;96386.91;;;5.10;92.10
27210;BME280;14721;42.668;23.386;2022-12-18T05:10:45;96387.06;;;5.05;91.08
27210;BME280;14721;42.668;23.386;2022-12-18T05:13:14;96392.75;;;4.95;90.94
27210;BME280;14721;42.668;23.386;2022-12-18T05:15:43;96319.47;;;4.46;91.00
27210;BME280;14721;42.668;23.386;2022-12-18T05:18:16;96387.94;;;4.81;91.38
27210;BME280;14721;42.668;23.386;2022-12-18T05:20:50;96410.66;;;4.87;91.34
27210;BME280;14721;42.668;23.386;2022-12-18T05:23:23;96407.28;;;4.83;91.65
27210;BME280;14721;42.668;23.386;2022-12-18T05:26:19;96412.63;;;4.82;91.70
27210;BME280;14721;42.668;23.386;2022-12-18T05:28:48;96405.84;;;4.73;91.99
27210;BME280;14721;42.668;23.386;2022-12-18T05:31:19;96413.91;;;4.70;92.04
27210;BME280;14721;42.668;23.386;2022-12-18T05:33:51;96421.69;;;4.75;92.47
27210;BME280;14721;42.668;23.386;2022-12-18T05:36:20;96427.09;;;4.72;92.21
27210;BME280;14721;42.668;23.386;2022-12-18T05:38:56;96434.19;;;4.71;92.54
27210;BME280;14721;42.668;23.386;2022-12-18T05:41:29;96434.81;;;4.78;91.27
27210;BME280;14721;42.668;23.386;2022-12-18T05:44:04;96427.84;;;4.75;91.29
27210;BME280;14721;42.668;23.386;2022-12-18T05:46:38;96430.81;;;4.66;91.38
27210;BME280;14721;42.668;23.386;2022-12-18T05:49:10;96444.84;;;4.70;90.80
27210;BME280;14721;42.668;23.386;2022-12-18T05:51:36;96448.53;;;4.64;91.06
27210;BME280;14721;42.668;23.386;2022-12-18T05:54:08;96439.78;;;4.62;91.01
27210;BME280;14721;42.668;23.386;2022-12-18T05:56:42;96445.69;;;4.70;90.88
27210;BME280;14721;42.668;23.386;2022-12-18T05:59:19;96450.34;;;4.64;90.53
27210;BME280;14721;42.668;23.386;2022-12-18T06:01:55;96437.41;;;4.55;90.48
27210;BME280;14721;42.668;23.386;2022-12-18T06:04:29;96453.06;;;4.61;90.50
27210;BME280;14721;42.668;23.386;2022-12-18T06:07:05;96455.06;;;4.54;90.30
27210;BME280;14721;42.668;23.386;2022-12-18T06:09:37;96450.59;;;4.56;90.62
27210;BME280;14721;42.668;23.386;2022-12-18T06:12:09;96460.91;;;4.64;90.26
27210;BME280;14721;42.668;23.386;2022-12-18T06:14:39;96474.06;;;4.67;89.92
27210;BME280;14721;42.668;23.386;2022-12-18T06:17:12;96475.78;;;4.68;89.45
27210;BME280;14721;42.668;23.386;2022-12-18T06:19:41;96475.00;;;4.64;89.41
27210;BME280;14721;42.668;23.386;2022-12-18T06:22:14;96478.72;;;4.59;89.41
27210;BME280;14721;42.668;23.386;2022-12-18T06:24:45;96471.09;;;4.50;89.29
27210;BME280;14721;42.668;23.386;2022-12-18T06:27:14;96484.00;;;4.59;89.61
27210;BME280;14721;42.668;23.386;2022-12-18T06:29:46;96468.53;;;4.47;89.54
27210;BME280;14721;42.668;23.386;2022-12-18T06:32:16;96477.34;;;4.47;89.69
27210;BME280;14721;42.668;23.386;2022-12-18T06:34:43;96471.38;;;4.41;89.84
27210;BME280;14721;42.668;23.386;2022-12-18T06:37:12;96492.16;;;4.53;90.02
27210;BME280;14721;42.668;23.386;2022-12-18T06:39:50;96495.63;;;4.55;89.68
27210;BME280;14721;42.668;23.386;2022-12-18T06:42:19;96511.31;;;4.61;89.40
27210;BME280;14721;42.668;23.386;2022-12-18T06:45:06;96505.88;;;4.65;89.18
27210;BME280;14721;42.668;23.386;2022-12-18T06:47:35;96493.47;;;4.66;89.74
27210;BME280;14721;42.668;23.386;2022-12-18T06:50:13;96483.47;;;4.75;89.37
27210;BME280;14721;42.668;23.386;2022-12-18T06:52:50;96490.31;;;4.81;88.35
27210;BME280;14721;42.668;23.386;2022-12-18T06:58:02;96505.94;;;4.88;87.61
27210;BME280;14721;42.668;23.386;2022-12-18T07:00:38;96519.25;;;4.87;87.72
27210;BME280;14721;42.668;23.386;2022-12-18T07:03:08;96514.09;;;4.82;87.45
27210;BME280;14721;42.668;23.386;2022-12-18T07:05:44;96520.38;;;4.80;87.06
27210;BME280;14721;42.668;23.386;2022-12-18T07:08:19;96518.59;;;4.80;86.57
27210;BME280;14721;42.668;23.386;2022-12-18T07:10:56;96531.69;;;4.85;85.85
27210;BME280;14721;42.668;23.386;2022-12-18T07:13:33;96522.25;;;4.76;85.20
27210;BME280;14721;42.668;23.386;2022-12-18T07:16:07;96528.28;;;4.81;84.67
27210;BME280;14721;42.668;23.386;2022-12-18T07:18:34;96529.09;;;4.83;84.48
27210;BME280;14721;42.668;23.386;2022-12-18T07:21:20;96537.00;;;4.85;85.02
27210;BME280;14721;42.668;23.386;2022-12-18T07:23:57;96537.78;;;4.87;84.56
27210;BME280;14721;42.668;23.386;2022-12-18T07:26:31;96537.84;;;4.85;85.40
27210;BME280;14721;42.668;23.386;2022-12-18T07:28:57;96538.50;;;4.92;84.75
27210;BME280;14721;42.668;23.386;2022-12-18T07:31:24;96538.97;;;5.04;84.94
27210;BME280;14721;42.668;23.386;2022-12-18T07:33:52;96542.41;;;5.06;84.08
27210;BME280;14721;42.668;23.386;2022-12-18T07:36:25;96546.41;;;4.93;84.06
27210;BME280;14721;42.668;23.386;2022-12-18T07:38:58;96547.28;;;4.94;84.51
27210;BME280;14721;42.668;23.386;2022-12-18T07:41:31;96548.94;;;4.96;84.85
27210;BME280;14721;42.668;23.386;2022-12-18T07:44:03;96552.78;;;4.88;84.67
27210;BME280;14721;42.668;23.386;2022-12-18T07:46:35;96553.81;;;4.82;85.17
27210;BME280;14721;42.668;23.386;2022-12-18T07:49:07;96557.34;;;4.83;85.40
27210;BME280;14721;42.668;23.386;2022-12-18T07:51:43;96558.47;;;4.76;85.52
27210;BME280;14721;42.668;23.386;2022-12-18T07:54:28;96561.22;;;4.73;85.24
27210;BME280;14721;42.668;23.386;2022-12-18T07:57:03;96559.75;;;4.63;85.25
27210;BME280;14721;42.668;23.386;2022-12-18T07:59:31;96564.84;;;4.69;85.89
27210;BME280;14721;42.668;23.386;2022-12-18T08:02:03;96581.31;;;4.78;85.65
27210;BME280;14721;42.668;23.386;2022-12-18T08:04:34;96579.94;;;4.67;85.70
27210;BME280;14721;42.668;23.386;2022-12-18T08:07:05;96587.09;;;4.63;86.27
27210;BME280;14721;42.668;23.386;2022-12-18T08:09:34;96583.81;;;4.55;86.72
27210;BME280;14721;42.668;23.386;2022-12-18T08:12:00;96592.25;;;4.68;86.77
27210;BME280;14721;42.668;23.386;2022-12-18T08:14:25;96601.06;;;4.68;86.44
27210;BME280;14721;42.668;23.386;2022-12-18T08:16:51;96609.84;;;4.69;86.93
27210;BME280;14721;42.668;23.386;2022-12-18T08:19:17;96588.97;;;4.60;86.72
27210;BME280;14721;42.668;23.386;2022-12-18T08:21:47;96615.09;;;4.70;87.04
27210;BME280;14721;42.668;23.386;2022-12-18T08:24:13;96612.59;;;4.66;87.20
27210;BME280;14721;42.668;23.386;2022-12-18T08:26:39;96609.22;;;4.62;87.01
27210;BME280;14721;42.668;23.386;2022-12-18T08:29:05;96623.09;;;4.69;86.53
27210;BME280;14721;42.668;23.386;2022-12-18T08:31:31;96627.44;;;4.71;86.40
27210;BME280;14721;42.668;23.386;2022-12-18T08:33:59;96616.97;;;4.68;86.26
27210;BME280;14721;42.668;23.386;2022-12-18T08:36:28;96635.44;;;4.70;86.09
27210;BME280;14721;42.668;23.386;2022-12-18T08:38:57;96622.94;;;4.73;85.28
27210;BME280;14721;42.668;23.386;2022-12-18T08:41:28;96635.34;;;4.73;85.42
27210;BME280;14721;42.668;23.386;2022-12-18T08:44:00;96620.22;;;4.76;84.88
27210;BME280;14721;42.668;23.386;2022-12-18T08:46:44;96611.22;;;4.82;84.57
27210;BME280;14721;42.668;23.386;2022-12-18T08:49:13;96633.25;;;4.82;84.28
27210;BME280;14721;42.668;23.386;2022-12-18T08:51:46;96628.06;;;4.79;83.77
27210;BME280;14721;42.668;23.386;2022-12-18T08:54:18;96630.16;;;4.70;83.73
27210;BME280;14721;42.668;23.386;2022-12-18T08:56:44;96625.75;;;4.69;84.11
27210;BME280;14721;42.668;23.386;2022-12-18T08:59:12;96632.09;;;4.63;84.09
27210;BME280;14721;42.668;23.386;2022-12-18T09:01:47;96632.78;;;4.70;83.53
27210;BME280;14721;42.668;23.386;2022-12-18T09:04:16;96620.06;;;4.81;83.37
27210;BME280;14721;42.668;23.386;2022-12-18T09:06:50;96627.13;;;4.82;82.26
27210;BME280;14721;42.668;23.386;2022-12-18T09:09:19;96628.75;;;4.86;82.20
27210;BME280;14721;42.668;23.386;2022-12-18T09:11:51;96628.84;;;4.83;81.84
27210;BME280;14721;42.668;23.386;2022-12-18T09:14:22;96622.56;;;4.85;81.99
27210;BME280;14721;42.668;23.386;2022-12-18T09:16:55;96620.59;;;4.92;80.85
27210;BME280;14721;42.668;23.386;2022-12-18T09:19:21;96619.19;;;4.82;80.36
27210;BME280;14721;42.668;23.386;2022-12-18T09:21:53;96630.56;;;4.84;80.56
27210;BME280;14721;42.668;23.386;2022-12-18T09:24:24;96620.72;;;4.89;80.72
27210;BME280;14721;42.668;23.386;2022-12-18T09:26:54;96632.03;;;4.94;80.05
27210;BME280;14721;42.668;23.386;2022-12-18T09:29:28;96633.91;;;4.90;79.52
27210;BME280;14721;42.668;23.386;2022-12-18T09:31:54;96633.44;;;4.76;79.49
27210;BME280;14721;42.668;23.386;2022-12-18T09:34:25;96606.94;;;4.78;79.27
27210;BME280;14721;42.668;23.386;2022-12-18T09:36:58;96628.34;;;4.98;78.56
27210;BME280;14721;42.668;23.386;2022-12-18T09:39:27;96636.94;;;5.06;78.59
27210;BME280;14721;42.668;23.386;2022-12-18T09:41:57;96629.22;;;4.98;78.44
27210;BME280;14721;42.668;23.386;2022-12-18T09:44:41;96640.81;;;4.94;77.79
27210;BME280;14721;42.668;23.386;2022-12-18T09:47:28;96641.47;;;5.02;78.65
27210;BME280;14721;42.668;23.386;2022-12-18T09:50:35;96642.88;;;5.12;77.58
27210;BME280;14721;42.668;23.386;2022-12-18T09:53:06;96634.38;;;5.03;78.30
27210;BME280;14721;42.668;23.386;2022-12-18T09:55:49;96633.41;;;5.05;78.32
27210;BME280;14721;42.668;23.386;2022-12-18T09:58:29;96637.69;;;5.09;78.33
27210;BME280;14721;42.668;23.386;2022-12-18T10:00:57;96623.31;;;5.16;78.38
27210;BME280;14721;42.668;23.386;2022-12-18T10:03:23;96629.91;;;5.31;77.59
27210;BME280;14721;42.668;23.386;2022-12-18T10:05:57;96637.66;;;5.37;77.24
27210;BME280;14721;42.668;23.386;2022-12-18T10:08:33;96632.16;;;5.43;76.35
27210;BME280;14721;42.668;23.386;2022-12-18T10:20:05;96614.22;;;5.49;75.36
27210;BME280;14721;42.668;23.386;2022-12-18T10:25:29;96636.94;;;5.58;74.01
27210;BME280;14721;42.668;23.386;2022-12-18T10:28:10;96626.91;;;5.41;73.32
27210;BME280;14721;42.668;23.386;2022-12-18T10:30:43;96633.94;;;5.42;74.41
27210;BME280;14721;42.668;23.386;2022-12-18T10:33:19;96639.16;;;5.44;74.29
27210;BME280;14721;42.668;23.386;2022-12-18T10:35:50;96631.38;;;5.39;74.50
27210;BME280;14721;42.668;23.386;2022-12-18T10:41:02;96630.19;;;5.48;73.93
27210;BME280;14721;42.668;23.386;2022-12-18T10:43:31;96629.19;;;5.52;74.02
27210;BME280;14721;42.668;23.386;2022-12-18T10:51:27;96622.84;;;5.56;74.43
27210;BME280;14721;42.668;23.386;2022-12-18T10:54:12;96625.03;;;5.69;74.49
27210;BME280;14721;42.668;23.386;2022-12-18T10:56:45;96626.59;;;5.75;74.47
27210;BME280;14721;42.668;23.386;2022-12-18T10:59:19;96615.94;;;5.76;74.35
27210;BME280;14721;42.668;23.386;2022-12-18T11:01:56;96616.09;;;5.72;74.05
27210;BME280;14721;42.668;23.386;2022-12-18T11:04:28;96629.97;;;5.80;74.07
27210;BME280;14721;42.668;23.386;2022-12-18T11:07:04;96616.91;;;5.74;74.68
27210;BME280;14721;42.668;23.386;2022-12-18T11:09:34;96632.94;;;5.71;74.84
27210;BME280;14721;42.668;23.386;2022-12-18T11:12:21;96618.69;;;5.73;75.02
27210;BME280;14721;42.668;23.386;2022-12-18T11:14:51;96622.44;;;5.68;75.12
27210;BME280;14721;42.668;23.386;2022-12-18T11:17:32;96624.63;;;5.55;74.84
27210;BME280;14721;42.668;23.386;2022-12-18T11:20:04;96619.06;;;5.63;75.96
27210;BME280;14721;42.668;23.386;2022-12-18T11:22:37;96628.56;;;5.70;73.99
27210;BME280;14721;42.668;23.386;2022-12-18T11:25:27;96639.13;;;5.71;73.38
27210;BME280;14721;42.668;23.386;2022-12-18T11:36:38;96637.78;;;5.85;72.60
27210;BME280;14721;42.668;23.386;2022-12-18T11:39:21;96638.66;;;5.85;71.81
27210;BME280;14721;42.668;23.386;2022-12-18T11:41:59;96632.53;;;5.83;72.19
27210;BME280;14721;42.668;23.386;2022-12-18T11:44:59;96629.78;;;5.86;72.30
27210;BME280;14721;42.668;23.386;2022-12-18T11:53:02;96636.00;;;5.85;72.20
27210;BME280;14721;42.668;23.386;2022-12-18T11:55:49;96638.66;;;5.85;72.16
27210;BME280;14721;42.668;23.386;2022-12-18T12:09:37;96631.44;;;5.89;71.43
27210;BME280;14721;42.668;23.386;2022-12-18T12:15:32;96626.22;;;5.61;71.39
27210;BME280;14721;42.668;23.386;2022-12-18T12:20:54;96614.75;;;5.60;71.93
27210;BME280;14721;42.668;23.386;2022-12-18T12:23:28;96637.63;;;5.63;72.38
27210;BME280;14721;42.668;23.386;2022-12-18T12:29:59;96639.63;;;5.81;72.03
27210;BME280;14721;42.668;23.386;2022-12-18T12:32:14;96646.81;;;5.79;72.62
27210;BME280;14721;42.668;23.386;2022-12-18T12:38:12;96651.72;;;5.91;71.27
27210;BME280;14721;42.668;23.386;2022-12-18T12:40:36;96651.50;;;5.97;71.63
27210;BME280;14721;42.668;23.386;2022-12-18T12:50:49;96636.25;;;6.02;72.55
27210;BME280;14721;42.668;23.386;2022-12-18T12:53:26;96645.09;;;6.03;72.20
27210;BME280;14721;42.668;23.386;2022-12-18T12:55:55;96647.47;;;6.10;72.26
27210;BME280;14721;42.668;23.386;2022-12-18T12:59:16;96650.41;;;6.03;71.93
27210;BME280;14721;42.668;23.386;2022-12-18T13:01:41;96646.59;;;6.10;72.21
27210;BME280;14721;42.668;23.386;2022-12-18T13:04:27;96656.56;;;6.28;72.06
27210;BME280;14721;42.668;23.386;2022-12-18T13:07:26;96662.69;;;6.30;71.26
27210;BME280;14721;42.668;23.386;2022-12-18T13:10:22;96665.28;;;6.07;71.75
27210;BME280;14721;42.668;23.386;2022-12-18T13:13:09;96668.81;;;6.07;71.88
27210;BME280;14721;42.668;23.386;2022-12-18T13:23:37;96678.88;;;5.98;72.84
27210;BME280;14721;42.668;23.386;2022-12-18T13:34:20;96690.09;;;6.06;72.49
27210;BME280;14721;42.668;23.386;2022-12-18T13:36:46;96681.56;;;5.96;71.71
27210;BME280;14721;42.668;23.386;2022-12-18T13:41:43;96683.56;;;5.91;71.66
27210;BME280;14721;42.668;23.386;2022-12-18T13:44:33;96680.94;;;5.90;71.69
27210;BME280;14721;42.668;23.386;2022-12-18T13:49:50;96696.75;;;5.93;72.60
27210;BME280;14721;42.668;23.386;2022-12-18T13:52:19;96711.47;;;6.01;71.73
27210;BME280;14721;42.668;23.386;2022-12-18T13:54:55;96681.09;;;5.85;71.34
27210;BME280;14721;42.668;23.386;2022-12-18T13:57:49;96717.97;;;5.93;71.65
27210;BME280;14721;42.668;23.386;2022-12-18T14:00:27;96716.00;;;5.98;72.19
27210;BME280;14721;42.668;23.386;2022-12-18T14:02:54;96714.97;;;6.03;72.42
27210;BME280;14721;42.668;23.386;2022-12-18T14:05:36;96714.19;;;6.00;72.02
27210;BME280;14721;42.668;23.386;2022-12-18T14:11:19;96667.19;;;5.77;72.26
27210;BME280;14721;42.668;23.386;2022-12-18T14:13:50;96694.31;;;5.87;71.73
27210;BME280;14721;42.668;23.386;2022-12-18T14:16:16;96710.06;;;5.91;72.18
27210;BME280;14721;42.668;23.386;2022-12-18T14:18:48;96723.22;;;5.94;72.13
27210;BME280;14721;42.668;23.386;2022-12-18T14:21:28;96722.50;;;5.89;72.09
27210;BME280;14721;42.668;23.386;2022-12-18T14:24:15;96662.78;;;5.51;71.61
27210;BME280;14721;42.668;23.386;2022-12-18T14:26:41;96709.16;;;5.64;71.69
27210;BME280;14721;42.668;23.386;2022-12-18T14:29:28;96734.38;;;5.77;71.84
27210;BME280;14721;42.668;23.386;2022-12-18T14:32:18;96711.66;;;5.69;71.02
27210;BME280;14721;42.668;23.386;2022-12-18T14:34:53;96709.13;;;5.66;70.97
27210;BME280;14721;42.668;23.386;2022-12-18T14:37:27;96730.84;;;5.77;70.95
27210;BME280;14721;42.668;23.386;2022-12-18T14:40:00;96737.88;;;5.78;70.32
27210;BME280;14721;42.668;23.386;2022-12-18T14:42:27;96741.41;;;5.78;70.88
27210;BME280;14721;42.668;23.386;2022-12-18T14:47:59;96724.78;;;5.73;71.01
27210;BME280;14721;42.668;23.386;2022-12-18T14:50:25;96727.38;;;5.75;71.00
27210;BME280;14721;42.668;23.386;2022-12-18T14:52:52;96729.38;;;5.68;70.20
27210;BME280;14721;42.668;23.386;2022-12-18T14:55:19;96732.13;;;5.65;70.06
27210;BME280;14721;42.668;23.386;2022-12-18T14:57:52;96741.03;;;5.63;69.88
27210;BME280;14721;42.668;23.386;2022-12-18T15:00:21;96713.03;;;5.54;69.21
27210;BME280;14721;42.668;23.386;2022-12-18T15:02:51;96729.44;;;5.39;69.41
27210;BME280;14721;42.668;23.386;2022-12-18T15:05:27;96742.34;;;5.50;69.67
27210;BME280;14721;42.668;23.386;2022-12-18T15:07:58;96735.47;;;5.44;69.48
27210;BME280;14721;42.668;23.386;2022-12-18T15:10:32;96740.81;;;5.43;68.32
27210;BME280;14721;42.668;23.386;2022-12-18T15:15:44;96755.56;;;5.51;67.93
27210;BME280;14721;42.668;23.386;2022-12-18T15:18:11;96754.50;;;5.57;68.09
27210;BME280;14721;42.668;23.386;2022-12-18T15:20:49;96751.59;;;5.64;68.03
27210;BME280;14721;42.668;23.386;2022-12-18T15:23:20;96752.63;;;5.60;67.06
27210;BME280;14721;42.668;23.386;2022-12-18T15:25:48;96730.44;;;5.37;66.36
27210;BME280;14721;42.668;23.386;2022-12-18T15:33:41;96764.28;;;5.27;67.00
27210;BME280;14721;42.668;23.386;2022-12-18T15:36:14;96755.91;;;5.13;67.07